Time;durP1;ratioP1;P1;durP2;ratioP2;P2;SDS_P1;SDS_P2;PMS_P1;PMS_P2;Temp;Humidity;BMP_temperature;BMP_pressure;BME280_temperature;BME280_humidity;BME280_pressure;Samples;Min_cycle;Max_cycle;Signal;HPM_P1;HPM_P2
2021/06/11 00:01:23;;;;;;;1999.90;999.90;;;11.80;99.90;;;;;;5072522;28;20203;-58
2021/06/11 00:03:50;;;;;;;1999.90;999.90;;;11.90;99.90;;;;;;5072797;28;20643;-60
2021/06/11 00:06:17;;;;;;;1999.90;999.90;;;11.90;99.90;;;;;;5072468;28;20171;-60
2021/06/11 00:08:44;;;;;;;1999.90;999.90;;;11.90;99.90;;;;;;5072646;28;20168;-60
2021/06/11 00:11:11;;;;;;;1999.90;999.90;;;11.80;99.90;;;;;;5072534;28;20216;-60
2021/06/11 00:13:38;;;;;;;1999.90;999.90;;;11.80;99.90;;;;;;5072489;28;20164;-60
2021/06/11 00:16:04;;;;;;;1999.90;999.90;;;11.70;99.90;;;;;;5072610;28;20169;-60
2021/06/11 00:18:31;;;;;;;1999.90;999.90;;;11.90;99.90;;;;;;5072389;28;20581;-60
2021/06/11 00:20:58;;;;;;;1999.90;999.90;;;11.90;99.90;;;;;;5072496;28;20677;-61
2021/06/11 00:23:25;;;;;;;1999.90;999.90;;;11.90;99.90;;;;;;5071969;28;20200;-60
2021/06/11 00:25:52;;;;;;;1999.90;999.90;;;11.90;99.90;;;;;;5072460;28;20169;-59
2021/06/11 00:28:19;;;;;;;1999.90;999.90;;;11.80;99.90;;;;;;5072085;28;20173;-60
2021/06/11 00:30:46;;;;;;;1999.90;999.90;;;11.70;99.90;;;;;;5072183;28;20165;-61
2021/06/11 00:33:13;;;;;;;1999.90;999.90;;;11.60;99.90;;;;;;5072228;28;20169;-61
2021/06/11 00:35:40;;;;;;;1999.90;999.90;;;11.50;99.90;;;;;;5072214;28;20173;-59
2021/06/11 00:38:09;;;;;;;1999.90;999.90;;;11.50;99.90;;;;;;5072084;28;20172;-60
2021/06/11 00:40:37;;;;;;;1999.90;999.90;;;11.50;99.90;;;;;;5071713;28;20219;-60
2021/06/11 00:43:04;;;;;;;1999.90;999.90;;;11.50;99.90;;;;;;5071621;28;20283;-60
2021/06/11 00:45:30;;;;;;;1999.90;999.90;;;11.50;99.90;;;;;;5072012;28;20168;-60
2021/06/11 00:47:57;;;;;;;1999.90;999.90;;;11.50;99.90;;;;;;5071869;28;20247;-61
2021/06/11 00:50:29;;;;;;;1999.90;999.90;;;11.50;99.90;;;;;;5071494;28;20630;-60
2021/06/11 00:52:56;;;;;;;1999.90;999.90;;;11.40;99.90;;;;;;5071690;28;20535;-60
2021/06/11 00:55:23;;;;;;;1999.90;999.90;;;11.50;99.90;;;;;;5071480;28;20165;-60
2021/06/11 00:57:50;;;;;;;1999.90;999.90;;;11.50;99.90;;;;;;5071659;28;20169;-60
2021/06/11 01:00:17;;;;;;;1999.90;999.90;;;11.50;99.90;;;;;;5071770;28;20172;-60
2021/06/11 01:02:44;;;;;;;1999.90;999.90;;;11.50;99.90;;;;;;5071245;28;20297;-60
2021/06/11 01:05:12;;;;;;;1999.90;999.90;;;11.50;99.90;;;;;;5071331;28;20268;-60
2021/06/11 01:07:41;;;;;;;1999.90;999.90;;;11.50;99.90;;;;;;5071684;28;20544;-60
2021/06/11 01:10:10;;;;;;;1999.90;999.90;;;11.50;99.90;;;;;;5071172;28;20212;-59
2021/06/11 01:12:37;;;;;;;1999.90;999.90;;;11.40;99.90;;;;;;5070672;28;20290;-60
2021/06/11 01:15:07;;;;;;;1999.90;999.90;;;11.50;99.90;;;;;;5071388;28;20186;-60
2021/06/11 01:17:35;;;;;;;1999.90;999.90;;;11.50;99.90;;;;;;5071415;28;20164;-59
2021/06/11 01:20:06;;;;;;;1999.90;999.90;;;11.50;99.90;;;;;;5071674;28;20176;-60
2021/06/11 01:22:56;;;;;;;1999.90;999.90;;;11.50;99.90;;;;;;5070883;28;20284;-60
2021/06/11 01:25:50;;;;;;;1999.90;999.90;;;11.40;99.90;;;;;;5071035;28;20161;-60
2021/06/11 01:28:17;;;;;;;1999.90;999.90;;;11.50;99.90;;;;;;5071166;28;20214;-60
2021/06/11 01:30:44;;;;;;;1999.90;999.90;;;11.40;99.90;;;;;;5071250;28;20623;-60
2021/06/11 01:33:14;;;;;;;1999.90;999.90;;;11.30;99.90;;;;;;5071011;28;20168;-60
2021/06/11 01:35:58;;;;;;;1999.90;999.90;;;11.30;99.90;;;;;;5071483;28;20180;-60
2021/06/11 01:38:28;;;;;;;1999.90;999.90;;;11.30;99.90;;;;;;5070835;28;20149;-59
2021/06/11 01:40:56;;;;;;;1999.90;999.90;;;11.30;99.90;;;;;;5070961;28;20247;-59
2021/06/11 01:43:26;;;;;;;1999.90;999.90;;;11.20;99.90;;;;;;5071171;28;20196;-61
2021/06/11 01:45:52;;;;;;;1999.90;999.90;;;11.20;99.90;;;;;;5070931;28;20161;-60
2021/06/11 01:48:20;;;;;;;1999.90;999.90;;;11.20;99.90;;;;;;5070848;28;20176;-60
2021/06/11 01:50:48;;;;;;;1999.90;999.90;;;11.20;99.90;;;;;;5070946;28;20175;-60
2021/06/11 01:53:19;;;;;;;1999.90;999.90;;;11.20;99.90;;;;;;5070853;28;20637;-59
2021/06/11 01:55:48;;;;;;;1999.90;999.90;;;11.20;99.90;;;;;;5070864;28;20167;-61
2021/06/11 01:58:17;;;;;;;1999.90;999.90;;;11.20;99.90;;;;;;5070771;28;20168;-59
2021/06/11 02:00:45;;;;;;;1999.90;999.90;;;11.20;99.90;;;;;;5070603;28;20569;-60
2021/06/11 02:03:16;;;;;;;1999.90;999.90;;;11.20;99.90;;;;;;5070977;28;20693;-60
2021/06/11 02:05:44;;;;;;;1999.90;999.90;;;11.20;99.90;;;;;;5070645;28;20164;-60
2021/06/11 02:08:13;;;;;;;1999.90;999.90;;;11.10;99.90;;;;;;5070690;28;20218;-60
2021/06/11 02:10:40;;;;;;;1999.90;999.90;;;11.20;99.90;;;;;;5070615;28;20208;-60
2021/06/11 02:13:08;;;;;;;1999.90;999.90;;;11.10;99.90;;;;;;5070647;28;20168;-60
2021/06/11 02:15:35;;;;;;;1999.90;999.90;;;11.00;99.90;;;;;;5070368;28;20190;-60
2021/06/11 02:18:04;;;;;;;1999.90;999.90;;;11.10;99.90;;;;;;5070631;28;20168;-60
2021/06/11 02:20:31;;;;;;;1999.90;999.90;;;11.00;99.90;;;;;;5071092;28;20208;-60
2021/06/11 02:22:58;;;;;;;1999.90;999.90;;;11.00;99.90;;;;;;5070670;28;20271;-60
2021/06/11 02:25:26;;;;;;;1999.90;999.90;;;11.00;99.90;;;;;;5074811;28;20164;-59
2021/06/11 02:27:56;;;;;;;1999.90;999.90;;;10.90;99.90;;;;;;5074431;28;20173;-59
2021/06/11 02:30:23;;;;;;;1999.90;999.90;;;10.80;99.90;;;;;;5074411;28;20783;-60
2021/06/11 02:32:50;;;;;;;1999.90;999.90;;;10.80;99.90;;;;;;5074522;28;20215;-60
2021/06/11 02:35:25;;;;;;;1999.90;999.90;;;10.80;99.90;;;;;;5074237;28;20183;-60
2021/06/11 02:37:53;;;;;;;1999.90;999.90;;;10.90;99.90;;;;;;5074086;28;20506;-60
2021/06/11 02:40:20;;;;;;;1999.90;999.90;;;10.80;99.90;;;;;;5074549;28;20207;-59
2021/06/11 02:42:58;;;;;;;1999.90;999.90;;;10.90;99.90;;;;;;5073767;28;20688;-59
2021/06/11 02:45:29;;;;;;;1999.90;999.90;;;10.80;99.90;;;;;;5074224;28;20148;-60
2021/06/11 02:48:42;;;;;;;1999.90;999.90;;;10.90;99.90;;;;;;5074179;28;20153;-61
2021/06/11 02:51:24;;;;;;;1999.90;999.90;;;10.80;99.90;;;;;;5060895;28;20177;-59
2021/06/11 02:53:52;;;;;;;1999.90;999.90;;;10.80;99.90;;;;;;5074039;28;20164;-59
2021/06/11 02:56:47;;;;;;;1999.90;999.90;;;10.70;99.90;;;;;;5073980;28;20634;-60
2021/06/11 02:59:32;;;;;;;1999.90;999.90;;;10.70;99.90;;;;;;5065666;28;20635;-60
2021/06/11 03:02:09;;;;;;;1999.90;999.90;;;10.60;99.90;;;;;;5073973;28;20185;-60
2021/06/11 03:04:43;;;;;;;1999.90;999.90;;;10.50;99.90;;;;;;5073528;28;20168;-60
2021/06/11 03:07:11;;;;;;;1999.90;999.90;;;10.50;99.90;;;;;;5073859;28;20202;-61
2021/06/11 03:09:40;;;;;;;1999.90;999.90;;;10.60;99.90;;;;;;5073596;28;20537;-60
2021/06/11 03:12:08;;;;;;;1999.90;999.90;;;10.50;99.90;;;;;;5073551;28;20615;-61
2021/06/11 03:14:36;;;;;;;1999.90;999.90;;;10.50;99.90;;;;;;5073410;28;20534;-60
2021/06/11 03:17:05;;;;;;;1999.90;999.90;;;10.50;99.90;;;;;;5073719;28;20177;-60
2021/06/11 03:19:35;;;;;;;1999.90;999.90;;;10.50;99.90;;;;;;5073260;28;20179;-60
2021/06/11 03:22:13;;;;;;;1999.90;999.90;;;10.50;99.90;;;;;;5073503;28;20300;-60
2021/06/11 03:25:16;;;;;;;1999.90;999.90;;;10.50;99.90;;;;;;5073427;28;20239;-59
2021/06/11 03:27:48;;;;;;;1999.90;999.90;;;10.50;99.90;;;;;;5069718;28;20210;-60
2021/06/11 03:30:16;;;;;;;1999.90;999.90;;;10.50;99.90;;;;;;5073991;28;20226;-61
2021/06/11 03:33:00;;;;;;;1999.90;999.90;;;10.50;99.90;;;;;;5073247;28;20179;-60
2021/06/11 03:35:35;;;;;;;1999.90;999.90;;;10.50;99.90;;;;;;5072820;28;20196;-60
2021/06/11 03:38:04;;;;;;;1999.90;999.90;;;10.50;99.90;;;;;;5073573;28;20152;-60
2021/06/11 03:40:36;;;;;;;1999.90;999.90;;;10.60;99.90;;;;;;5073120;28;20211;-60
2021/06/11 03:43:03;;;;;;;1999.90;999.90;;;10.50;99.90;;;;;;5072954;28;20279;-61
2021/06/11 03:45:31;;;;;;;1999.90;999.90;;;10.60;99.90;;;;;;5073050;28;20497;-61
2021/06/11 03:48:03;;;;;;;1999.90;999.90;;;10.50;99.90;;;;;;5073027;28;20197;-61
2021/06/11 03:50:32;;;;;;;1999.90;999.90;;;10.50;99.90;;;;;;5072961;28;20596;-60
2021/06/11 03:53:01;;;;;;;1999.90;999.90;;;10.50;99.90;;;;;;5072914;28;20222;-60
2021/06/11 03:55:33;;;;;;;1999.90;999.90;;;10.50;99.90;;;;;;5072669;28;20626;-61
2021/06/11 03:58:05;;;;;;;1999.90;999.90;;;10.50;99.90;;;;;;5072947;28;20164;-59
2021/06/11 04:00:34;;;;;;;1999.90;999.90;;;10.50;99.90;;;;;;5072841;28;20161;-61
2021/06/11 04:03:01;;;;;;;1999.90;999.90;;;10.50;99.90;;;;;;5072299;28;20196;-60
2021/06/11 04:05:28;;;;;;;1999.90;999.90;;;10.40;99.90;;;;;;5072974;28;20639;-59
2021/06/11 04:07:58;;;;;;;1999.90;999.90;;;10.40;99.90;;;;;;5072453;28;20207;-60
2021/06/11 04:10:53;;;;;;;1999.90;999.90;;;10.40;99.90;;;;;;5072244;28;20737;-60
2021/06/11 04:13:23;;;;;;;1999.90;999.90;;;10.40;99.90;;;;;;5072019;28;20180;-60
2021/06/11 04:15:53;;;;;;;1999.90;999.90;;;10.40;99.90;;;;;;5072387;28;20462;-60
2021/06/11 04:18:26;;;;;;;1999.90;999.90;;;10.40;99.90;;;;;;5072307;28;20173;-60
2021/06/11 04:20:56;;;;;;;1999.90;999.90;;;10.40;99.90;;;;;;5072447;28;20169;-61
2021/06/11 04:23:27;;;;;;;1999.90;999.90;;;10.40;99.90;;;;;;5071906;28;20220;-60
2021/06/11 04:25:56;;;;;;;1999.90;999.90;;;10.30;99.90;;;;;;5072159;28;20168;-60
2021/06/11 04:28:29;;;;;;;1999.90;999.90;;;10.40;99.90;;;;;;5072261;28;20172;-60
2021/06/11 04:30:56;;;;;;;1999.90;999.90;;;10.40;99.90;;;;;;5072253;28;20221;-60
2021/06/11 04:33:26;;;;;;;1999.90;999.90;;;10.30;99.90;;;;;;5072166;28;20168;-60
2021/06/11 04:35:53;;;;;;;1999.90;999.90;;;10.30;99.90;;;;;;5072023;28;20636;-60
2021/06/11 04:38:20;;;;;;;1999.90;999.90;;;10.30;99.90;;;;;;5071876;28;20521;-60
2021/06/11 04:40:47;;;;;;;1999.90;999.90;;;10.30;99.90;;;;;;5071882;28;20177;-60
2021/06/11 04:43:15;;;;;;;1999.90;999.90;;;10.30;99.90;;;;;;5054017;28;20196;-60
2021/06/11 04:45:41;;;;;;;1999.90;999.90;;;10.20;99.90;;;;;;5071366;28;20310;-60
2021/06/11 04:48:09;;;;;;;1999.90;999.90;;;10.30;99.90;;;;;;5071857;28;20164;-60
2021/06/11 04:50:36;;;;;;;1999.90;999.90;;;10.30;99.90;;;;;;5071620;28;20171;-61
2021/06/11 04:53:03;;;;;;;1999.90;999.90;;;10.30;99.90;;;;;;5071749;28;20251;-61
2021/06/11 04:55:29;;;;;;;1999.90;999.90;;;10.20;99.90;;;;;;5071730;28;20218;-60
2021/06/11 04:57:56;;;;;;;1999.90;999.90;;;10.20;99.90;;;;;;5071312;28;20630;-64
2021/06/11 05:00:25;;;;;;;1999.90;999.90;;;10.10;99.90;;;;;;5071249;28;20173;-60
2021/06/11 05:02:52;;;;;;;1999.90;999.90;;;10.20;99.90;;;;;;5071427;28;20215;-60
2021/06/11 05:05:19;;;;;;;1999.90;999.90;;;10.00;99.90;;;;;;5071042;28;20168;-60
2021/06/11 05:07:46;;;;;;;1999.90;999.90;;;10.10;99.90;;;;;;5071499;28;20642;-60
2021/06/11 05:10:14;;;;;;;1999.90;999.90;;;10.10;99.90;;;;;;5071577;28;20216;-60
2021/06/11 05:12:41;;;;;;;1999.90;999.90;;;10.10;99.90;;;;;;5070997;28;20181;-59
2021/06/11 05:15:08;;;;;;;1999.90;999.90;;;10.10;99.90;;;;;;5053530;28;20187;-60
2021/06/11 05:17:35;;;;;;;1999.90;999.90;;;10.20;99.90;;;;;;5053383;28;20172;-61
2021/06/11 05:20:02;;;;;;;1999.90;999.90;;;10.10;99.90;;;;;;5071085;28;20176;-59
2021/06/11 05:22:29;;;;;;;1999.90;999.90;;;10.20;99.90;;;;;;5070990;28;20204;-60
2021/06/11 05:24:56;;;;;;;1999.90;999.90;;;10.10;99.90;;;;;;5071062;28;20169;-60
2021/06/11 05:27:22;;;;;;;1999.90;999.90;;;10.10;99.90;;;;;;5071045;28;20692;-60
2021/06/11 05:29:49;;;;;;;1999.90;999.90;;;10.10;99.90;;;;;;5070899;28;20221;-60
2021/06/11 05:32:16;;;;;;;1999.90;999.90;;;10.00;99.90;;;;;;5071109;28;20179;-60
2021/06/11 05:34:43;;;;;;;1999.90;999.90;;;10.00;99.90;;;;;;5070356;28;20160;-60
2021/06/11 05:37:09;;;;;;;1999.90;999.90;;;10.00;99.90;;;;;;5070686;28;20596;-59
2021/06/11 05:39:36;;;;;;;1999.90;999.90;;;10.00;99.90;;;;;;5070621;28;20164;-60
2021/06/11 05:42:03;;;;;;;1999.90;999.90;;;10.10;99.90;;;;;;5070409;28;20608;-60
2021/06/11 05:44:30;;;;;;;1999.90;999.90;;;10.10;99.90;;;;;;5070216;28;20639;-61
2021/06/11 05:46:56;;;;;;;1999.90;999.90;;;10.10;99.90;;;;;;5070317;28;20881;-60
2021/06/11 05:49:23;;;;;;;1999.90;999.90;;;10.10;99.90;;;;;;5070243;28;20196;-60
2021/06/11 05:51:50;;;;;;;1999.90;999.90;;;10.10;99.90;;;;;;5070379;28;20168;-60
2021/06/11 05:54:16;;;;;;;1999.90;999.90;;;10.10;99.90;;;;;;5070316;28;20164;-60
2021/06/11 05:56:43;;;;;;;1999.90;999.90;;;10.10;99.90;;;;;;5070309;28;20217;-60
2021/06/11 05:59:10;;;;;;;1999.90;999.90;;;10.10;99.90;;;;;;5070762;28;20200;-60
2021/06/11 06:01:37;;;;;;;1999.90;999.90;;;10.00;99.90;;;;;;5070005;28;20204;-60
2021/06/11 06:04:04;;;;;;;1999.90;999.90;;;10.00;99.90;;;;;;5069575;28;20630;-50
2021/06/11 06:06:31;;;;;;;1999.90;999.90;;;10.00;99.90;;;;;;5070328;28;20615;-53
2021/06/11 06:08:57;;;;;;;1999.90;999.90;;;10.20;99.90;;;;;;5065724;28;20649;-57
2021/06/11 06:11:24;;;;;;;1999.90;999.90;;;10.30;99.90;;;;;;5050372;28;20238;-58
2021/06/11 06:13:51;;;;;;;1999.90;999.90;;;10.50;99.90;;;;;;5069153;28;20168;-57
2021/06/11 06:16:18;;;;;;;1999.90;999.90;;;10.60;99.90;;;;;;5070004;28;20546;-53
2021/06/11 06:18:45;;;;;;;1999.90;999.90;;;10.90;99.90;;;;;;5068384;28;20176;-59
2021/06/11 06:21:12;;;;;;;1999.90;999.90;;;11.10;99.90;;;;;;5069762;28;20219;-60
2021/06/11 06:23:39;;;;;;;1999.90;999.90;;;11.50;99.90;;;;;;5069495;28;20222;-55
2021/06/11 06:26:06;;;;;;;1999.90;999.90;;;12.00;99.90;;;;;;5068698;28;20274;-57
2021/06/11 06:28:33;;;;;;;1999.90;999.90;;;12.00;99.90;;;;;;5069867;28;20235;-58
2021/06/11 06:30:59;;;;;;;1999.90;999.90;;;12.20;99.90;;;;;;5069162;28;20169;-52
2021/06/11 06:33:26;;;;;;;1999.90;999.90;;;12.60;99.90;;;;;;5068593;28;20183;-49
2021/06/11 06:35:53;;;;;;;1999.90;999.90;;;12.90;99.90;;;;;;5069799;28;20169;-57
2021/06/11 06:38:24;;;;;;;1999.90;999.90;;;13.10;99.90;;;;;;5069287;28;20211;-57
2021/06/11 06:40:58;;;;;;;1999.90;999.90;;;13.40;99.90;;;;;;5068550;28;20161;-59
2021/06/11 06:43:24;;;;;;;1999.90;999.90;;;13.70;99.90;;;;;;5069368;28;20209;-55
2021/06/11 06:45:51;;;;;;;1999.90;999.90;;;14.20;99.90;;;;;;5069146;28;20255;-56
2021/06/11 06:48:18;;;;;;;1999.90;999.90;;;13.70;99.90;;;;;;5068486;28;20169;-55
2021/06/11 06:50:45;;;;;;;1999.90;999.90;;;13.80;99.90;;;;;;5067240;28;20180;-57
2021/06/11 06:53:12;;;;;;;1999.90;999.90;;;14.20;99.90;;;;;;5068289;28;20207;-60
2021/06/11 06:55:39;;;;;;;1999.90;999.90;;;14.30;99.90;;;;;;5068167;28;20690;-56
2021/06/11 06:58:07;;;;;;;1999.90;999.90;;;14.20;99.90;;;;;;5051142;28;20314;-50
2021/06/11 07:00:34;;;;;;;1999.90;999.90;;;14.20;99.90;;;;;;5068415;28;20322;-54
2021/06/11 07:03:01;;;;;;;1999.90;999.90;;;14.10;99.90;;;;;;5068384;28;20543;-51
2021/06/11 07:05:28;;;;;;;1999.90;999.90;;;14.80;99.90;;;;;;5050899;28;20652;-59
2021/06/11 07:07:55;;;;;;;1999.90;999.90;;;15.00;99.90;;;;;;5068077;28;20173;-61
2021/06/11 07:10:23;;;;;;;1999.90;999.90;;;14.70;99.90;;;;;;5070600;28;20235;-61
2021/06/11 07:12:50;;;;;;;1999.90;999.90;;;15.10;99.90;;;;;;5054623;28;20176;-58
2021/06/11 07:15:17;;;;;;;1999.90;999.90;;;15.30;99.90;;;;;;5070845;28;20552;-59
2021/06/11 07:17:43;;;;;;;1999.90;999.90;;;15.10;99.90;;;;;;5072126;28;20186;-59
2021/06/11 07:20:11;;;;;;;1999.90;999.90;;;14.30;99.90;;;;;;5071571;28;20253;-56
2021/06/11 07:22:38;;;;;;;1999.90;999.90;;;14.60;99.90;;;;;;5071504;28;20197;-56
2021/06/11 07:25:07;;;;;;;1999.90;999.90;;;14.40;99.90;;;;;;5072090;28;20195;-60
2021/06/11 07:27:35;;;;;;;1999.90;999.90;;;14.40;99.90;;;;;;5072204;28;20560;-56
2021/06/11 07:30:07;;;;;;;1999.90;999.90;;;14.30;99.90;;;;;;5071389;28;20595;-58
2021/06/11 07:32:34;;;;;;;1999.90;999.90;;;14.80;99.90;;;;;;5072539;28;20295;-57
2021/06/11 07:35:01;;;;;;;1999.90;999.90;;;14.90;99.90;;;;;;5071721;28;20317;-56
2021/06/11 07:37:28;;;;;;;1999.90;999.90;;;14.80;99.90;;;;;;5071241;28;20172;-56
2021/06/11 07:39:55;;;;;;;1999.90;999.90;;;14.80;99.90;;;;;;5071974;28;20169;-54
2021/06/11 07:42:22;;;;;;;1999.90;999.90;;;14.80;99.90;;;;;;5071715;28;20234;-54
2021/06/11 07:44:49;;;;;;;1999.90;999.90;;;14.80;99.90;;;;;;5071271;28;20176;-57
2021/06/11 07:47:15;;;;;;;1999.90;999.90;;;15.00;99.90;;;;;;5072291;28;20559;-54
2021/06/11 07:49:43;;;;;;;1999.90;999.90;;;14.90;99.90;;;;;;5071764;28;20259;-59
2021/06/11 07:52:10;;;;;;;1999.90;999.90;;;15.30;99.90;;;;;;5070717;28;20181;-58
2021/06/11 07:54:37;;;;;;;1999.90;999.90;;;15.20;99.90;;;;;;5072071;28;20619;-51
2021/06/11 07:57:04;;;;;;;1999.90;999.90;;;15.20;99.90;;;;;;5071551;28;20171;-61
2021/06/11 07:59:31;;;;;;;1999.90;999.90;;;15.30;99.90;;;;;;5070628;28;20202;-48
2021/06/11 08:01:58;;;;;;;1999.90;999.90;;;15.70;99.90;;;;;;5071606;28;20204;-59
2021/06/11 08:04:24;;;;;;;1999.90;999.90;;;16.70;99.90;;;;;;5071313;28;20529;-63
2021/06/11 08:06:51;;;;;;;1999.90;999.90;;;17.40;99.90;;;;;;5071360;28;20165;-61
2021/06/11 08:09:18;;;;;;;1999.90;999.90;;;17.90;99.90;;;;;;5071511;28;20190;-57
2021/06/11 08:11:45;;;;;;;1999.90;999.90;;;18.50;99.90;;;;;;5071069;28;20224;-50
2021/06/11 08:14:12;;;;;;;1999.90;999.90;;;18.60;99.20;;;;;;5071273;28;20173;-56
2021/06/11 08:16:39;;;;;;;1999.90;999.90;;;18.50;99.50;;;;;;5071164;28;20256;-55
2021/06/11 08:19:06;;;;;;;1999.90;999.90;;;18.30;99.60;;;;;;5070586;28;20210;-59
2021/06/11 08:21:33;;;;;;;1999.90;999.90;;;18.10;99.90;;;;;;5070859;28;20171;-58
2021/06/11 08:24:00;;;;;;;1999.90;999.90;;;17.90;99.90;;;;;;5071361;28;20179;-57
2021/06/11 08:26:26;;;;;;;1999.90;999.90;;;18.00;99.90;;;;;;5070737;28;20172;-60
2021/06/11 08:28:53;;;;;;;1999.90;999.90;;;18.00;99.90;;;;;;5071376;28;20169;-60
2021/06/11 08:31:20;;;;;;;1999.90;999.90;;;17.90;99.90;;;;;;5071229;28;20195;-59
2021/06/11 08:33:47;;;;;;;1999.90;999.90;;;17.90;99.90;;;;;;5070668;28;20164;-61
2021/06/11 08:36:17;;;;;;;1999.90;999.90;;;17.90;99.90;;;;;;5071083;28;20533;-56
2021/06/11 08:38:45;;;;;;;1999.90;999.90;;;18.00;99.90;;;;;;5070828;28;20192;-65
2021/06/11 08:41:14;;;;;;;1999.90;999.90;;;18.50;99.90;;;;;;5070197;28;20255;-61
2021/06/11 08:43:41;;;;;;;1999.90;999.90;;;18.60;99.90;;;;;;5071057;28;20211;-64
2021/06/11 08:46:09;;;;;;;1999.90;999.90;;;18.50;99.90;;;;;;5070641;28;20173;-57
2021/06/11 08:48:37;;;;;;;1999.90;999.90;;;18.70;99.70;;;;;;5070182;28;20199;-52
2021/06/11 08:51:04;;;;;;;1999.90;999.90;;;18.80;99.50;;;;;;5071343;28;20657;-47
2021/06/11 08:53:32;;;;;;;1999.90;999.90;;;19.20;99.90;;;;;;5071087;28;20175;-52
2021/06/11 08:55:59;;;;;;;1999.90;999.90;;;19.20;97.50;;;;;;5070272;28;20173;-43
2021/06/11 08:58:26;;;;;;;1999.90;999.90;;;19.60;98.90;;;;;;5071116;28;20170;-58
2021/06/11 09:00:53;;;;;;;1999.90;999.90;;;19.80;97.20;;;;;;5070648;28;20164;-54
2021/06/11 09:03:35;;;;;;;1999.90;999.90;;;20.20;97.70;;;;;;5069630;28;20208;-54
2021/06/11 09:06:01;;;;;;;1999.90;999.90;;;20.50;96.80;;;;;;5070455;28;20630;-53
2021/06/11 09:08:29;;;;;;;1999.90;999.90;;;20.70;94.50;;;;;;5052128;28;20777;-53
2021/06/11 09:11:18;;;;;;;1999.90;999.90;;;20.60;93.80;;;;;;5069641;28;20212;-53
2021/06/11 09:13:49;;;;;;;1999.90;999.90;;;20.40;93.90;;;;;;5070381;28;20188;-47
2021/06/11 09:16:28;;;;;;;1999.90;999.90;;;20.90;93.30;;;;;;5069407;28;20744;-46
2021/06/11 09:18:57;;;;;;;1999.90;999.90;;;21.30;89.30;;;;;;5070022;28;20251;-45
2021/06/11 09:21:43;;;;;;;1999.90;999.90;;;21.70;87.60;;;;;;5070505;28;20685;-45
2021/06/11 09:24:30;;;;;;;1999.90;999.90;;;21.90;89.90;;;;;;5051398;28;20191;-42
2021/06/11 09:27:07;;;;;;;1999.90;999.90;;;22.10;89.30;;;;;;5070344;28;20172;-43
2021/06/11 09:29:45;;;;;;;1999.90;999.90;;;22.50;86.60;;;;;;5069980;28;20151;-44
2021/06/11 09:32:22;;;;;;;1999.90;999.90;;;22.50;85.70;;;;;;5069392;28;20153;-60
2021/06/11 09:34:58;;;;;;;1999.90;999.90;;;22.70;80.50;;;;;;5070086;28;20165;-56
2021/06/11 09:37:30;;;;;;;1999.90;999.90;;;22.80;74.90;;;;;;5069810;28;20195;-41
2021/06/11 09:40:03;;;;;;;1999.90;999.90;;;22.80;76.40;;;;;;5069823;28;20165;-45
2021/06/11 09:42:33;;;;;;;1999.90;999.90;;;23.00;67.30;;;;;;5069878;28;20291;-49
2021/06/11 09:45:08;;;;;;;1999.90;999.90;;;23.10;66.90;;;;;;5068765;28;20168;-56
2021/06/11 09:47:43;;;;;;;1999.90;999.90;;;23.20;65.50;;;;;;5069995;28;20182;-44
2021/06/11 09:50:18;;;;;;;1999.90;999.90;;;23.30;66.30;;;;;;5069824;28;20175;-45
2021/06/11 09:52:52;;;;;;;1999.90;999.90;;;23.40;66.60;;;;;;5068945;28;20195;-46
2021/06/11 09:55:31;;;;;;;1999.90;999.90;;;23.40;65.10;;;;;;5070420;28;20630;-43
2021/06/11 09:58:17;;;;;;;1999.90;999.90;;;23.30;66.60;;;;;;5069600;28;20309;-43
2021/06/11 10:00:54;;;;;;;1999.90;999.90;;;23.20;70.20;;;;;;5068950;28;20168;-42
2021/06/11 10:03:24;;;;;;;1999.90;999.90;;;23.50;71.90;;;;;;5070236;28;20196;-46
2021/06/11 10:05:54;;;;;;;1999.90;999.90;;;23.60;71.30;;;;;;5069214;28;20164;-50
2021/06/11 10:08:22;;;;;;;1999.90;999.90;;;23.60;70.30;;;;;;5051471;28;20180;-50
2021/06/11 10:10:51;;;;;;;1999.90;999.90;;;23.70;67.70;;;;;;5069144;28;20223;-52
2021/06/11 10:13:20;;;;;;;1999.90;999.90;;;23.70;67.40;;;;;;5068874;28;20165;-47
2021/06/11 10:15:50;;;;;;;1999.90;999.90;;;23.70;66.80;;;;;;5069548;28;20222;-55
2021/06/11 10:18:18;;;;;;;1999.90;999.90;;;23.70;70.30;;;;;;5069849;28;20152;-45
2021/06/11 10:20:45;;;;;;;1999.90;999.90;;;23.90;68.70;;;;;;5068899;28;20217;-44
2021/06/11 10:23:15;;;;;;;1999.90;999.90;;;24.10;69.30;;;;;;5069325;28;20356;-58
2021/06/11 10:25:46;;;;;;;1999.90;999.90;;;24.30;67.50;;;;;;5069515;28;20172;-56
2021/06/11 10:28:17;;;;;;;1999.90;999.90;;;24.10;70.40;;;;;;5068309;28;20207;-52
2021/06/11 10:30:44;;;;;;;1999.90;999.90;;;24.00;68.40;;;;;;5069607;28;20160;-57
2021/06/11 10:33:11;;;;;;;1999.90;999.90;;;23.70;68.20;;;;;;5069623;28;20601;-58
2021/06/11 10:35:41;;;;;;;1999.90;999.90;;;23.70;65.10;;;;;;5069013;28;20165;-53
2021/06/11 10:38:29;;;;;;;1999.90;999.90;;;23.90;66.20;;;;;;5069392;28;20176;-56
2021/06/11 10:40:58;;;;;;;1999.90;999.90;;;23.90;62.10;;;;;;5069386;28;20160;-58
2021/06/11 10:43:38;;;;;;;1999.90;999.90;;;23.90;60.60;;;;;;5068684;28;20205;-58
2021/06/11 10:46:30;;;;;;;1999.90;999.90;;;23.80;61.80;;;;;;5056648;28;20167;-53
2021/06/11 10:48:57;;;;;;;1999.90;999.90;;;23.70;61.80;;;;;;5072468;28;20683;-53
2021/06/11 10:51:42;;;;;;;1999.90;999.90;;;23.80;59.10;;;;;;5073196;28;20218;-57
2021/06/11 10:54:26;;;;;;;1999.90;999.90;;;23.80;60.80;;;;;;5073251;28;20655;-57
2021/06/11 10:56:59;;;;;;;1999.90;999.90;;;23.90;61.40;;;;;;5066084;28;20165;-53
2021/06/11 10:59:40;;;;;;;1999.90;999.90;;;24.10;64.80;;;;;;5053710;28;20169;-60
2021/06/11 11:02:08;;;;;;;1999.90;999.90;;;24.30;61.20;;;;;;5052758;28;20239;-49
2021/06/11 11:04:38;;;;;;;1999.90;999.90;;;24.40;61.60;;;;;;5052338;28;20172;-56
2021/06/11 11:07:23;;;;;;;1999.90;999.90;;;24.60;59.80;;;;;;5053536;28;20173;-51
2021/06/11 11:10:09;;;;;;;1999.90;999.90;;;24.80;59.00;;;;;;5052045;28;20208;-55
2021/06/11 11:13:13;;;;;;;1999.90;999.90;;;24.90;56.60;;;;;;5052763;28;20266;-58
2021/06/11 11:15:47;;;;;;;1999.90;999.90;;;24.90;54.90;;;;;;5053208;28;20173;-55
2021/06/11 11:18:23;;;;;;;1999.90;999.90;;;24.90;56.00;;;;;;5052165;28;20164;-60
2021/06/11 11:20:51;;;;;;;1999.90;999.90;;;24.90;53.30;;;;;;5052811;28;20607;-58
2021/06/11 11:23:23;;;;;;;1999.90;999.90;;;25.00;53.30;;;;;;5052728;28;20223;-58
2021/06/11 11:25:51;;;;;;;1999.90;999.90;;;25.10;52.20;;;;;;5051887;28;20176;-56
2021/06/11 11:28:18;;;;;;;1999.90;999.90;;;25.10;51.80;;;;;;5052857;28;20211;-58
2021/06/11 11:30:46;;;;;;;1999.90;999.90;;;25.10;51.70;;;;;;5052259;28;20162;-58
2021/06/11 11:33:14;;;;;;;1999.90;999.90;;;25.20;52.40;;;;;;5051706;28;20677;-58
2021/06/11 11:35:46;;;;;;;1999.90;999.90;;;25.20;52.10;;;;;;5052479;28;20169;-59
2021/06/11 11:38:13;;;;;;;1999.90;999.90;;;25.30;51.10;;;;;;5052187;28;20161;-60
2021/06/11 11:40:43;;;;;;;1999.90;999.90;;;25.30;51.60;;;;;;5052117;28;20165;-60
2021/06/11 11:43:11;;;;;;;1999.90;999.90;;;25.40;49.60;;;;;;5052188;28;20292;-53
2021/06/11 11:45:39;;;;;;;1999.90;999.90;;;25.40;48.50;;;;;;5051657;28;20252;-63
2021/06/11 11:48:07;;;;;;;1999.90;999.90;;;25.50;50.20;;;;;;5052021;28;20888;-55
2021/06/11 11:50:36;;;;;;;1999.90;999.90;;;25.50;49.40;;;;;;5052218;28;20173;-58
2021/06/11 11:53:04;;;;;;;1999.90;999.90;;;25.50;49.10;;;;;;5051272;28;20169;-60
2021/06/11 11:55:31;;;;;;;1999.90;999.90;;;25.60;48.20;;;;;;5051567;28;20168;-58
2021/06/11 11:57:57;;;;;;;1999.90;999.90;;;25.60;46.30;;;;;;5052069;28;20657;-58
2021/06/11 12:00:27;;;;;;;1999.90;999.90;;;25.60;47.10;;;;;;5051152;28;20217;-59
2021/06/11 12:02:56;;;;;;;1999.90;999.90;;;25.50;46.20;;;;;;5052005;28;20239;-56
2021/06/11 12:05:23;;;;;;;1999.90;999.90;;;25.50;44.50;;;;;;5051621;28;20173;-49
2021/06/11 12:07:50;;;;;;;1999.90;999.90;;;25.60;46.00;;;;;;5050958;28;20176;-49
2021/06/11 12:10:17;;;;;;;1999.90;999.90;;;25.60;45.50;;;;;;5051372;28;20221;-54
2021/06/11 12:12:43;;;;;;;1999.90;999.90;;;25.60;46.20;;;;;;5052199;28;20339;-58